sensor_id;sensor_type;location;lat;lon;timestamp;temperature;humidity
25937;DHT22;13733;51.178;4.450;2023-12-20T00:02:23;7.10;99.90
25937;DHT22;13733;51.178;4.450;2023-12-20T00:04:48;7.10;99.90
25937;DHT22;13733;51.178;4.450;2023-12-20T00:07:15;7.00;99.90
25937;DHT22;13733;51.178;4.450;2023-12-20T00:09:41;7.10;99.90
25937;DHT22;13733;51.178;4.450;2023-12-20T00:12:07;7.10;99.90
25937;DHT22;13733;51.178;4.450;2023-12-20T00:14:33;7.20;99.90
25937;DHT22;13733;51.178;4.450;2023-12-20T00:16:58;7.10;99.90
25937;DHT22;13733;51.178;4.450;2023-12-20T00:19:24;7.10;99.90
25937;DHT22;13733;51.178;4.450;2023-12-20T00:21:50;7.10;99.90
25937;DHT22;13733;51.178;4.450;2023-12-20T00:24:15;7.10;99.90
25937;DHT22;13733;51.178;4.450;2023-12-20T00:26:42;7.10;99.90
25937;DHT22;13733;51.178;4.450;2023-12-20T00:29:08;7.20;99.90
25937;DHT22;13733;51.178;4.450;2023-12-20T00:31:34;7.20;99.90
25937;DHT22;13733;51.178;4.450;2023-12-20T00:34:00;7.20;99.90
25937;DHT22;13733;51.178;4.450;2023-12-20T00:36:26;7.20;99.90
25937;DHT22;13733;51.178;4.450;2023-12-20T00:38:52;7.30;99.90
25937;DHT22;13733;51.178;4.450;2023-12-20T00:41:18;7.30;99.90
25937;DHT22;13733;51.178;4.450;2023-12-20T00:43:44;7.10;99.90
25937;DHT22;13733;51.178;4.450;2023-12-20T00:46:11;7.20;99.90
25937;DHT22;13733;51.178;4.450;2023-12-20T00:48:37;7.30;99.90
25937;DHT22;13733;51.178;4.450;2023-12-20T00:51:03;7.30;99.90
25937;DHT22;13733;51.178;4.450;2023-12-20T00:53:29;7.30;99.90
25937;DHT22;13733;51.178;4.450;2023-12-20T00:55:55;7.30;99.90
25937;DHT22;13733;51.178;4.450;2023-12-20T00:58:21;7.00;99.90
25937;DHT22;13733;51.178;4.450;2023-12-20T01:00:47;7.00;99.90
25937;DHT22;13733;51.178;4.450;2023-12-20T01:03:12;7.10;99.90
25937;DHT22;13733;51.178;4.450;2023-12-20T01:05:39;7.10;99.90
25937;DHT22;13733;51.178;4.450;2023-12-20T01:08:05;7.20;99.90
25937;DHT22;13733;51.178;4.450;2023-12-20T01:10:31;7.20;99.90
25937;DHT22;13733;51.178;4.450;2023-12-20T01:12:57;7.20;99.90
25937;DHT22;13733;51.178;4.450;2023-12-20T01:15:23;7.20;99.90
25937;DHT22;13733;51.178;4.450;2023-12-20T01:17:49;7.20;99.90
25937;DHT22;13733;51.178;4.450;2023-12-20T01:20:15;7.20;99.90
25937;DHT22;13733;51.178;4.450;2023-12-20T01:22:40;7.20;99.90
25937;DHT22;13733;51.178;4.450;2023-12-20T01:25:08;7.10;99.90
25937;DHT22;13733;51.178;4.450;2023-12-20T01:27:34;7.20;99.90
25937;DHT22;13733;51.178;4.450;2023-12-20T01:30:00;7.20;99.90
25937;DHT22;13733;51.178;4.450;2023-12-20T01:32:26;7.10;99.90
25937;DHT22;13733;51.178;4.450;2023-12-20T01:34:51;7.20;99.90
25937;DHT22;13733;51.178;4.450;2023-12-20T01:37:17;7.20;99.90
25937;DHT22;13733;51.178;4.450;2023-12-20T01:39:43;7.30;99.90
25937;DHT22;13733;51.178;4.450;2023-12-20T01:42:09;7.30;99.90
25937;DHT22;13733;51.178;4.450;2023-12-20T01:44:35;7.30;99.90
25937;DHT22;13733;51.178;4.450;2023-12-20T01:47:00;7.20;99.90
25937;DHT22;13733;51.178;4.450;2023-12-20T01:49:27;7.10;99.90
25937;DHT22;13733;51.178;4.450;2023-12-20T01:51:53;7.00;99.90
25937;DHT22;13733;51.178;4.450;2023-12-20T01:54:19;7.10;99.90
25937;DHT22;13733;51.178;4.450;2023-12-20T01:56:46;7.00;99.90
25937;DHT22;13733;51.178;4.450;2023-12-20T01:59:13;7.00;99.90
25937;DHT22;13733;51.178;4.450;2023-12-20T02:01:39;7.00;99.90
25937;DHT22;13733;51.178;4.450;2023-12-20T02:04:05;7.10;99.90
25937;DHT22;13733;51.178;4.450;2023-12-20T02:06:31;7.20;99.90
25937;DHT22;13733;51.178;4.450;2023-12-20T02:09:00;7.30;99.90
25937;DHT22;13733;51.178;4.450;2023-12-20T02:11:26;7.40;99.90
25937;DHT22;13733;51.178;4.450;2023-12-20T02:13:53;7.30;99.80
25937;DHT22;13733;51.178;4.450;2023-12-20T02:16:19;7.20;99.90
25937;DHT22;13733;51.178;4.450;2023-12-20T02:18:44;7.20;99.90
25937;DHT22;13733;51.178;4.450;2023-12-20T02:21:10;7.20;99.90
25937;DHT22;13733;51.178;4.450;2023-12-20T02:23:36;7.40;99.90
25937;DHT22;13733;51.178;4.450;2023-12-20T02:26:03;7.30;99.90
25937;DHT22;13733;51.178;4.450;2023-12-20T02:28:30;7.40;99.70
25937;DHT22;13733;51.178;4.450;2023-12-20T02:30:56;7.50;98.80
25937;DHT22;13733;51.178;4.450;2023-12-20T02:33:22;7.40;98.90
25937;DHT22;13733;51.178;4.450;2023-12-20T02:35:47;7.30;99.50
25937;DHT22;13733;51.178;4.450;2023-12-20T02:38:13;7.30;99.90
25937;DHT22;13733;51.178;4.450;2023-12-20T02:40:39;7.30;99.90
25937;DHT22;13733;51.178;4.450;2023-12-20T02:43:05;7.30;99.90
25937;DHT22;13733;51.178;4.450;2023-12-20T02:45:30;7.20;99.90
25937;DHT22;13733;51.178;4.450;2023-12-20T02:47:57;7.30;99.90
25937;DHT22;13733;51.178;4.450;2023-12-20T02:50:23;7.40;99.90
25937;DHT22;13733;51.178;4.450;2023-12-20T02:52:48;7.40;99.90
25937;DHT22;13733;51.178;4.450;2023-12-20T02:55:15;7.40;99.90
25937;DHT22;13733;51.178;4.450;2023-12-20T02:57:41;7.20;99.90
25937;DHT22;13733;51.178;4.450;2023-12-20T03:00:10;7.40;99.90
25937;DHT22;13733;51.178;4.450;2023-12-20T03:02:36;7.50;99.90
25937;DHT22;13733;51.178;4.450;2023-12-20T03:05:03;7.40;99.90
25937;DHT22;13733;51.178;4.450;2023-12-20T03:07:28;7.40;99.90
25937;DHT22;13733;51.178;4.450;2023-12-20T03:09:54;7.30;99.90
25937;DHT22;13733;51.178;4.450;2023-12-20T03:12:20;7.30;99.90
25937;DHT22;13733;51.178;4.450;2023-12-20T03:14:46;7.20;99.90
25937;DHT22;13733;51.178;4.450;2023-12-20T03:17:11;7.10;99.90
25937;DHT22;13733;51.178;4.450;2023-12-20T03:19:37;7.10;99.90
25937;DHT22;13733;51.178;4.450;2023-12-20T03:22:03;7.10;99.90
25937;DHT22;13733;51.178;4.450;2023-12-20T03:24:29;7.30;99.90
25937;DHT22;13733;51.178;4.450;2023-12-20T03:26:56;7.40;99.90
25937;DHT22;13733;51.178;4.450;2023-12-20T03:29:21;7.50;99.90
25937;DHT22;13733;51.178;4.450;2023-12-20T03:31:47;7.40;99.90
25937;DHT22;13733;51.178;4.450;2023-12-20T03:34:13;7.40;99.90
25937;DHT22;13733;51.178;4.450;2023-12-20T03:36:39;7.40;99.90
25937;DHT22;13733;51.178;4.450;2023-12-20T03:39:05;7.40;99.90
25937;DHT22;13733;51.178;4.450;2023-12-20T03:41:31;7.20;99.90
25937;DHT22;13733;51.178;4.450;2023-12-20T03:43:57;7.20;99.90
25937;DHT22;13733;51.178;4.450;2023-12-20T03:46:23;7.20;99.90
25937;DHT22;13733;51.178;4.450;2023-12-20T03:48:49;7.20;99.90
25937;DHT22;13733;51.178;4.450;2023-12-20T03:51:14;7.20;99.90
25937;DHT22;13733;51.178;4.450;2023-12-20T03:53:40;7.20;99.90
25937;DHT22;13733;51.178;4.450;2023-12-20T03:56:06;7.20;99.90
25937;DHT22;13733;51.178;4.450;2023-12-20T03:58:32;7.00;99.90
25937;DHT22;13733;51.178;4.450;2023-12-20T04:00:58;7.00;99.90
25937;DHT22;13733;51.178;4.450;2023-12-20T04:03:24;6.90;99.90
25937;DHT22;13733;51.178;4.450;2023-12-20T04:05:50;6.80;99.90
25937;DHT22;13733;51.178;4.450;2023-12-20T04:08:15;6.80;99.90
25937;DHT22;13733;51.178;4.450;2023-12-20T04:10:41;6.80;99.90
25937;DHT22;13733;51.178;4.450;2023-12-20T04:13:07;6.90;99.90
25937;DHT22;13733;51.178;4.450;2023-12-20T04:15:33;7.00;99.90
25937;DHT22;13733;51.178;4.450;2023-12-20T04:18:01;7.00;99.90
25937;DHT22;13733;51.178;4.450;2023-12-20T04:20:26;7.00;99.90
25937;DHT22;13733;51.178;4.450;2023-12-20T04:22:52;6.90;99.90
25937;DHT22;13733;51.178;4.450;2023-12-20T04:25:18;7.00;99.90
25937;DHT22;13733;51.178;4.450;2023-12-20T04:27:44;7.00;99.90
25937;DHT22;13733;51.178;4.450;2023-12-20T04:30:10;7.00;99.90
25937;DHT22;13733;51.178;4.450;2023-12-20T04:32:36;7.00;99.90
25937;DHT22;13733;51.178;4.450;2023-12-20T04:35:01;7.00;99.90
25937;DHT22;13733;51.178;4.450;2023-12-20T04:37:27;7.00;99.90
25937;DHT22;13733;51.178;4.450;2023-12-20T04:39:53;7.30;99.90
25937;DHT22;13733;51.178;4.450;2023-12-20T04:42:19;7.20;99.90
25937;DHT22;13733;51.178;4.450;2023-12-20T04:44:45;7.20;99.90
25937;DHT22;13733;51.178;4.450;2023-12-20T04:47:10;7.20;99.90
25937;DHT22;13733;51.178;4.450;2023-12-20T04:49:36;7.20;99.90
25937;DHT22;13733;51.178;4.450;2023-12-20T04:52:02;7.30;99.90
25937;DHT22;13733;51.178;4.450;2023-12-20T04:54:28;7.20;99.90
25937;DHT22;13733;51.178;4.450;2023-12-20T04:56:53;7.10;99.90
25937;DHT22;13733;51.178;4.450;2023-12-20T04:59:19;7.10;99.90
25937;DHT22;13733;51.178;4.450;2023-12-20T05:01:45;7.00;99.90
25937;DHT22;13733;51.178;4.450;2023-12-20T05:04:11;7.00;99.90
25937;DHT22;13733;51.178;4.450;2023-12-20T05:06:37;6.90;99.90
25937;DHT22;13733;51.178;4.450;2023-12-20T05:09:03;7.00;99.90
25937;DHT22;13733;51.178;4.450;2023-12-20T05:11:28;7.00;99.90
25937;DHT22;13733;51.178;4.450;2023-12-20T05:13:55;6.90;99.90
25937;DHT22;13733;51.178;4.450;2023-12-20T05:16:21;6.90;99.90
25937;DHT22;13733;51.178;4.450;2023-12-20T05:18:48;6.90;99.90
25937;DHT22;13733;51.178;4.450;2023-12-20T05:21:18;6.90;99.90
25937;DHT22;13733;51.178;4.450;2023-12-20T05:23:44;6.80;99.90
25937;DHT22;13733;51.178;4.450;2023-12-20T05:26:09;6.90;99.90
25937;DHT22;13733;51.178;4.450;2023-12-20T05:28:35;7.00;99.90
25937;DHT22;13733;51.178;4.450;2023-12-20T05:31:01;7.00;99.90
25937;DHT22;13733;51.178;4.450;2023-12-20T05:33:27;7.10;99.90
25937;DHT22;13733;51.178;4.450;2023-12-20T05:35:53;7.10;99.90
25937;DHT22;13733;51.178;4.450;2023-12-20T05:38:19;7.20;99.90
25937;DHT22;13733;51.178;4.450;2023-12-20T05:40:45;7.20;99.90
25937;DHT22;13733;51.178;4.450;2023-12-20T05:43:12;7.10;99.90
25937;DHT22;13733;51.178;4.450;2023-12-20T05:45:38;7.10;99.90
25937;DHT22;13733;51.178;4.450;2023-12-20T05:48:04;7.00;99.90
25937;DHT22;13733;51.178;4.450;2023-12-20T05:50:30;7.10;99.90
25937;DHT22;13733;51.178;4.450;2023-12-20T05:52:55;7.20;99.90
25937;DHT22;13733;51.178;4.450;2023-12-20T05:55:21;7.30;99.90
25937;DHT22;13733;51.178;4.450;2023-12-20T05:57:47;7.40;99.90
25937;DHT22;13733;51.178;4.450;2023-12-20T06:00:14;7.20;99.90
25937;DHT22;13733;51.178;4.450;2023-12-20T06:02:41;7.30;99.90
25937;DHT22;13733;51.178;4.450;2023-12-20T06:05:07;7.30;99.90
25937;DHT22;13733;51.178;4.450;2023-12-20T06:07:33;7.30;99.90
25937;DHT22;13733;51.178;4.450;2023-12-20T06:09:59;7.40;99.90
25937;DHT22;13733;51.178;4.450;2023-12-20T06:12:24;7.40;99.90
25937;DHT22;13733;51.178;4.450;2023-12-20T06:14:52;7.50;99.90
25937;DHT22;13733;51.178;4.450;2023-12-20T06:17:18;7.50;99.90
25937;DHT22;13733;51.178;4.450;2023-12-20T06:19:44;7.30;99.90
25937;DHT22;13733;51.178;4.450;2023-12-20T06:22:14;7.20;99.90
25937;DHT22;13733;51.178;4.450;2023-12-20T06:24:40;7.10;99.90
25937;DHT22;13733;51.178;4.450;2023-12-20T06:27:06;7.20;99.90
25937;DHT22;13733;51.178;4.450;2023-12-20T06:29:31;7.10;99.90
25937;DHT22;13733;51.178;4.450;2023-12-20T06:31:57;7.10;99.90
25937;DHT22;13733;51.178;4.450;2023-12-20T06:34:23;7.00;99.90
25937;DHT22;13733;51.178;4.450;2023-12-20T06:36:49;6.90;99.90
25937;DHT22;13733;51.178;4.450;2023-12-20T06:39:14;6.90;99.90
25937;DHT22;13733;51.178;4.450;2023-12-20T06:41:40;7.10;99.90
25937;DHT22;13733;51.178;4.450;2023-12-20T06:44:06;7.10;99.90
25937;DHT22;13733;51.178;4.450;2023-12-20T06:46:32;7.00;99.90
25937;DHT22;13733;51.178;4.450;2023-12-20T06:48:57;7.00;99.90
25937;DHT22;13733;51.178;4.450;2023-12-20T06:51:23;6.90;99.90
25937;DHT22;13733;51.178;4.450;2023-12-20T06:53:52;7.00;99.90
25937;DHT22;13733;51.178;4.450;2023-12-20T06:56:17;6.90;99.90
25937;DHT22;13733;51.178;4.450;2023-12-20T06:58:43;6.90;99.90
25937;DHT22;13733;51.178;4.450;2023-12-20T07:01:13;7.00;99.90
25937;DHT22;13733;51.178;4.450;2023-12-20T07:03:39;7.00;99.90
25937;DHT22;13733;51.178;4.450;2023-12-20T07:06:06;7.00;99.90
25937;DHT22;13733;51.178;4.450;2023-12-20T07:08:31;7.10;99.90
25937;DHT22;13733;51.178;4.450;2023-12-20T07:10:57;7.30;99.90
25937;DHT22;13733;51.178;4.450;2023-12-20T07:13:25;7.40;99.20
25937;DHT22;13733;51.178;4.450;2023-12-20T07:15:51;7.30;99.40
25937;DHT22;13733;51.178;4.450;2023-12-20T07:18:17;7.10;99.90
25937;DHT22;13733;51.178;4.450;2023-12-20T07:20:43;7.10;99.90
25937;DHT22;13733;51.178;4.450;2023-12-20T07:23:09;7.00;99.90
25937;DHT22;13733;51.178;4.450;2023-12-20T07:25:35;6.90;99.90
25937;DHT22;13733;51.178;4.450;2023-12-20T07:28:00;7.00;99.90
25937;DHT22;13733;51.178;4.450;2023-12-20T07:30:26;7.00;99.90
25937;DHT22;13733;51.178;4.450;2023-12-20T07:32:52;6.90;99.90
25937;DHT22;13733;51.178;4.450;2023-12-20T07:35:18;6.90;99.90
25937;DHT22;13733;51.178;4.450;2023-12-20T07:37:44;6.90;99.90
25937;DHT22;13733;51.178;4.450;2023-12-20T07:40:10;6.90;99.90
25937;DHT22;13733;51.178;4.450;2023-12-20T07:42:36;6.90;99.90
25937;DHT22;13733;51.178;4.450;2023-12-20T07:45:02;7.00;99.90
25937;DHT22;13733;51.178;4.450;2023-12-20T07:47:28;6.90;99.90
25937;DHT22;13733;51.178;4.450;2023-12-20T07:49:53;6.90;99.90
25937;DHT22;13733;51.178;4.450;2023-12-20T07:52:19;6.80;99.90
25937;DHT22;13733;51.178;4.450;2023-12-20T07:54:47;6.70;99.90
25937;DHT22;13733;51.178;4.450;2023-12-20T07:57:13;6.70;99.90
25937;DHT22;13733;51.178;4.450;2023-12-20T07:59:38;6.80;99.90
25937;DHT22;13733;51.178;4.450;2023-12-20T08:02:04;6.80;99.90
25937;DHT22;13733;51.178;4.450;2023-12-20T08:04:30;6.80;99.90
25937;DHT22;13733;51.178;4.450;2023-12-20T08:06:56;6.80;99.90
25937;DHT22;13733;51.178;4.450;2023-12-20T08:09:21;6.80;99.90
25937;DHT22;13733;51.178;4.450;2023-12-20T08:11:48;6.80;99.90
25937;DHT22;13733;51.178;4.450;2023-12-20T08:14:14;6.80;99.90
25937;DHT22;13733;51.178;4.450;2023-12-20T08:16:40;6.90;99.90
25937;DHT22;13733;51.178;4.450;2023-12-20T08:19:05;7.00;99.90
25937;DHT22;13733;51.178;4.450;2023-12-20T08:21:31;6.80;99.90
25937;DHT22;13733;51.178;4.450;2023-12-20T08:23:57;6.90;99.90
25937;DHT22;13733;51.178;4.450;2023-12-20T08:26:23;6.90;99.90
25937;DHT22;13733;51.178;4.450;2023-12-20T08:28:50;6.90;99.90
25937;DHT22;13733;51.178;4.450;2023-12-20T08:31:16;6.90;99.90
25937;DHT22;13733;51.178;4.450;2023-12-20T08:33:46;6.90;99.90
25937;DHT22;13733;51.178;4.450;2023-12-20T08:36:12;6.90;99.90
25937;DHT22;13733;51.178;4.450;2023-12-20T08:38:38;6.90;99.90
25937;DHT22;13733;51.178;4.450;2023-12-20T08:41:05;6.90;99.90
25937;DHT22;13733;51.178;4.450;2023-12-20T08:43:31;6.90;99.90
25937;DHT22;13733;51.178;4.450;2023-12-20T08:45:58;6.90;99.90
25937;DHT22;13733;51.178;4.450;2023-12-20T08:48:23;7.00;99.90
25937;DHT22;13733;51.178;4.450;2023-12-20T08:50:49;6.90;99.90
25937;DHT22;13733;51.178;4.450;2023-12-20T08:53:17;7.00;99.90
25937;DHT22;13733;51.178;4.450;2023-12-20T08:55:43;7.00;99.90
25937;DHT22;13733;51.178;4.450;2023-12-20T08:58:09;7.00;99.90
25937;DHT22;13733;51.178;4.450;2023-12-20T09:00:36;7.10;99.90
25937;DHT22;13733;51.178;4.450;2023-12-20T09:03:02;7.20;99.60
25937;DHT22;13733;51.178;4.450;2023-12-20T09:05:30;7.10;99.00
25937;DHT22;13733;51.178;4.450;2023-12-20T09:07:56;7.10;99.60
25937;DHT22;13733;51.178;4.450;2023-12-20T09:10:22;7.10;99.90
25937;DHT22;13733;51.178;4.450;2023-12-20T09:12:52;7.10;99.50
25937;DHT22;13733;51.178;4.450;2023-12-20T09:15:23;7.10;99.90
25937;DHT22;13733;51.178;4.450;2023-12-20T09:17:49;7.10;99.90
25937;DHT22;13733;51.178;4.450;2023-12-20T09:20:15;7.20;99.10
25937;DHT22;13733;51.178;4.450;2023-12-20T09:22:41;7.10;99.80
25937;DHT22;13733;51.178;4.450;2023-12-20T09:25:08;7.20;99.80
25937;DHT22;13733;51.178;4.450;2023-12-20T09:27:35;7.30;99.90
25937;DHT22;13733;51.178;4.450;2023-12-20T09:30:02;7.30;98.80
25937;DHT22;13733;51.178;4.450;2023-12-20T09:32:28;7.50;97.10
25937;DHT22;13733;51.178;4.450;2023-12-20T09:34:55;7.50;97.90
25937;DHT22;13733;51.178;4.450;2023-12-20T09:37:21;7.50;97.00
25937;DHT22;13733;51.178;4.450;2023-12-20T09:39:46;7.60;96.50
25937;DHT22;13733;51.178;4.450;2023-12-20T09:42:16;7.60;95.70
25937;DHT22;13733;51.178;4.450;2023-12-20T09:44:42;7.70;96.30
25937;DHT22;13733;51.178;4.450;2023-12-20T09:47:10;7.80;96.30
25937;DHT22;13733;51.178;4.450;2023-12-20T09:49:36;7.80;94.80
25937;DHT22;13733;51.178;4.450;2023-12-20T09:52:05;8.00;93.40
25937;DHT22;13733;51.178;4.450;2023-12-20T09:54:33;8.20;92.00
25937;DHT22;13733;51.178;4.450;2023-12-20T09:57:00;8.40;89.90
25937;DHT22;13733;51.178;4.450;2023-12-20T09:59:25;8.40;86.50
25937;DHT22;13733;51.178;4.450;2023-12-20T10:01:55;8.50;86.40
25937;DHT22;13733;51.178;4.450;2023-12-20T10:04:22;8.60;84.90
25937;DHT22;13733;51.178;4.450;2023-12-20T10:06:48;8.60;84.10
25937;DHT22;13733;51.178;4.450;2023-12-20T10:09:13;8.70;82.70
25937;DHT22;13733;51.178;4.450;2023-12-20T10:11:40;8.70;82.70
25937;DHT22;13733;51.178;4.450;2023-12-20T10:14:06;8.70;82.20
25937;DHT22;13733;51.178;4.450;2023-12-20T10:16:33;8.80;80.50
25937;DHT22;13733;51.178;4.450;2023-12-20T10:18:59;8.70;82.70
25937;DHT22;13733;51.178;4.450;2023-12-20T10:21:27;8.60;85.50
25937;DHT22;13733;51.178;4.450;2023-12-20T10:23:56;8.60;84.60
25937;DHT22;13733;51.178;4.450;2023-12-20T10:26:25;8.60;86.40
25937;DHT22;13733;51.178;4.450;2023-12-20T10:29:01;8.60;84.40
25937;DHT22;13733;51.178;4.450;2023-12-20T10:31:36;8.80;81.10
25937;DHT22;13733;51.178;4.450;2023-12-20T10:34:04;8.80;81.40
25937;DHT22;13733;51.178;4.450;2023-12-20T10:36:32;8.60;86.30
25937;DHT22;13733;51.178;4.450;2023-12-20T10:38:59;8.60;87.80
25937;DHT22;13733;51.178;4.450;2023-12-20T10:41:26;8.70;86.00
25937;DHT22;13733;51.178;4.450;2023-12-20T10:43:59;8.70;85.10
25937;DHT22;13733;51.178;4.450;2023-12-20T10:46:27;8.70;85.50
25937;DHT22;13733;51.178;4.450;2023-12-20T10:48:55;8.90;85.80
25937;DHT22;13733;51.178;4.450;2023-12-20T10:51:22;8.80;84.70
25937;DHT22;13733;51.178;4.450;2023-12-20T10:53:50;8.70;85.10
25937;DHT22;13733;51.178;4.450;2023-12-20T10:56:17;8.70;89.10
25937;DHT22;13733;51.178;4.450;2023-12-20T10:58:45;8.70;91.00
25937;DHT22;13733;51.178;4.450;2023-12-20T11:01:16;8.80;90.40
25937;DHT22;13733;51.178;4.450;2023-12-20T11:03:53;8.90;86.70
25937;DHT22;13733;51.178;4.450;2023-12-20T11:06:29;8.70;90.40
25937;DHT22;13733;51.178;4.450;2023-12-20T11:09:10;8.50;93.30
25937;DHT22;13733;51.178;4.450;2023-12-20T11:14:17;8.50;94.90
25937;DHT22;13733;51.178;4.450;2023-12-20T11:16:44;8.50;96.50
25937;DHT22;13733;51.178;4.450;2023-12-20T11:19:11;8.50;97.40
25937;DHT22;13733;51.178;4.450;2023-12-20T11:21:40;8.40;97.70
25937;DHT22;13733;51.178;4.450;2023-12-20T11:24:06;8.40;99.10
25937;DHT22;13733;51.178;4.450;2023-12-20T11:26:33;8.40;99.60
25937;DHT22;13733;51.178;4.450;2023-12-20T11:29:31;8.40;99.90
25937;DHT22;13733;51.178;4.450;2023-12-20T11:32:04;8.40;99.90
25937;DHT22;13733;51.178;4.450;2023-12-20T11:34:51;8.40;99.90
25937;DHT22;13733;51.178;4.450;2023-12-20T11:37:19;8.40;99.90
25937;DHT22;13733;51.178;4.450;2023-12-20T11:39:53;8.40;99.90
25937;DHT22;13733;51.178;4.450;2023-12-20T11:42:20;8.30;99.90
25937;DHT22;13733;51.178;4.450;2023-12-20T11:44:46;8.30;99.90
25937;DHT22;13733;51.178;4.450;2023-12-20T11:47:13;8.40;99.90
25937;DHT22;13733;51.178;4.450;2023-12-20T11:49:39;8.40;99.90
25937;DHT22;13733;51.178;4.450;2023-12-20T11:52:05;8.40;99.90
25937;DHT22;13733;51.178;4.450;2023-12-20T11:54:32;8.40;99.90
25937;DHT22;13733;51.178;4.450;2023-12-20T11:56:58;8.50;99.90
25937;DHT22;13733;51.178;4.450;2023-12-20T11:59:25;8.50;99.90
25937;DHT22;13733;51.178;4.450;2023-12-20T12:01:51;8.40;99.90
25937;DHT22;13733;51.178;4.450;2023-12-20T12:04:17;8.50;99.90
25937;DHT22;13733;51.178;4.450;2023-12-20T12:06:44;8.50;99.90
25937;DHT22;13733;51.178;4.450;2023-12-20T12:09:10;8.70;99.90
25937;DHT22;13733;51.178;4.450;2023-12-20T12:11:36;8.60;99.90
25937;DHT22;13733;51.178;4.450;2023-12-20T12:14:02;8.70;99.90
25937;DHT22;13733;51.178;4.450;2023-12-20T12:16:29;8.60;99.90
25937;DHT22;13733;51.178;4.450;2023-12-20T12:18:56;8.70;99.90
25937;DHT22;13733;51.178;4.450;2023-12-20T12:21:23;8.70;99.90
25937;DHT22;13733;51.178;4.450;2023-12-20T12:23:49;8.60;99.90
25937;DHT22;13733;51.178;4.450;2023-12-20T12:26:14;8.60;99.90
25937;DHT22;13733;51.178;4.450;2023-12-20T12:28:41;8.70;99.90
25937;DHT22;13733;51.178;4.450;2023-12-20T12:31:09;8.60;99.90
25937;DHT22;13733;51.178;4.450;2023-12-20T12:33:38;8.70;99.90
25937;DHT22;13733;51.178;4.450;2023-12-20T12:36:04;8.80;99.90
25937;DHT22;13733;51.178;4.450;2023-12-20T12:38:33;8.90;99.70
25937;DHT22;13733;51.178;4.450;2023-12-20T12:41:00;9.00;98.70
25937;DHT22;13733;51.178;4.450;2023-12-20T12:43:29;8.90;99.40
25937;DHT22;13733;51.178;4.450;2023-12-20T12:45:55;8.90;99.60
25937;DHT22;13733;51.178;4.450;2023-12-20T12:48:21;8.90;99.80
25937;DHT22;13733;51.178;4.450;2023-12-20T12:50:48;9.00;99.00
25937;DHT22;13733;51.178;4.450;2023-12-20T12:53:13;9.00;99.20
25937;DHT22;13733;51.178;4.450;2023-12-20T12:55:39;9.00;99.90
25937;DHT22;13733;51.178;4.450;2023-12-20T12:58:05;8.90;99.90
25937;DHT22;13733;51.178;4.450;2023-12-20T13:00:31;8.80;99.90
25937;DHT22;13733;51.178;4.450;2023-12-20T13:02:57;9.00;99.90
25937;DHT22;13733;51.178;4.450;2023-12-20T13:05:22;9.10;98.70
25937;DHT22;13733;51.178;4.450;2023-12-20T13:07:48;9.20;97.90
25937;DHT22;13733;51.178;4.450;2023-12-20T13:10:14;9.40;96.70
25937;DHT22;13733;51.178;4.450;2023-12-20T13:12:44;9.30;97.50
25937;DHT22;13733;51.178;4.450;2023-12-20T13:15:10;9.30;97.60
25937;DHT22;13733;51.178;4.450;2023-12-20T13:17:36;9.30;97.30
25937;DHT22;13733;51.178;4.450;2023-12-20T13:20:03;9.40;96.90
25937;DHT22;13733;51.178;4.450;2023-12-20T13:22:29;9.40;96.80
25937;DHT22;13733;51.178;4.450;2023-12-20T13:24:55;9.40;98.10
25937;DHT22;13733;51.178;4.450;2023-12-20T13:27:20;9.40;97.00
25937;DHT22;13733;51.178;4.450;2023-12-20T13:29:47;9.50;96.30
25937;DHT22;13733;51.178;4.450;2023-12-20T13:32:13;9.50;96.70
25937;DHT22;13733;51.178;4.450;2023-12-20T13:34:39;9.60;96.50
25937;DHT22;13733;51.178;4.450;2023-12-20T13:37:05;9.60;93.80
25937;DHT22;13733;51.178;4.450;2023-12-20T13:39:31;9.60;94.80
25937;DHT22;13733;51.178;4.450;2023-12-20T13:41:58;9.60;94.80
25937;DHT22;13733;51.178;4.450;2023-12-20T13:44:23;9.60;94.40
25937;DHT22;13733;51.178;4.450;2023-12-20T13:46:50;9.60;94.70
25937;DHT22;13733;51.178;4.450;2023-12-20T13:49:16;9.70;94.60
25937;DHT22;13733;51.178;4.450;2023-12-20T13:51:43;9.70;94.60
25937;DHT22;13733;51.178;4.450;2023-12-20T13:54:09;9.80;92.50
25937;DHT22;13733;51.178;4.450;2023-12-20T13:56:36;9.80;93.00
25937;DHT22;13733;51.178;4.450;2023-12-20T13:59:02;9.80;92.30
25937;DHT22;13733;51.178;4.450;2023-12-20T14:01:29;9.80;91.70
25937;DHT22;13733;51.178;4.450;2023-12-20T14:03:55;9.90;92.40
25937;DHT22;13733;51.178;4.450;2023-12-20T14:06:21;9.90;92.20
25937;DHT22;13733;51.178;4.450;2023-12-20T14:08:46;9.90;91.60
25937;DHT22;13733;51.178;4.450;2023-12-20T14:11:13;9.90;92.20
25937;DHT22;13733;51.178;4.450;2023-12-20T14:13:41;9.80;91.90
25937;DHT22;13733;51.178;4.450;2023-12-20T14:16:07;9.90;91.10
25937;DHT22;13733;51.178;4.450;2023-12-20T14:18:33;9.80;91.90
25937;DHT22;13733;51.178;4.450;2023-12-20T14:20:58;9.80;92.20
25937;DHT22;13733;51.178;4.450;2023-12-20T14:23:24;9.80;93.00
25937;DHT22;13733;51.178;4.450;2023-12-20T14:25:50;9.80;92.80
25937;DHT22;13733;51.178;4.450;2023-12-20T14:28:16;9.90;92.30
25937;DHT22;13733;51.178;4.450;2023-12-20T14:30:42;9.90;91.30
25937;DHT22;13733;51.178;4.450;2023-12-20T14:33:08;9.90;91.00
25937;DHT22;13733;51.178;4.450;2023-12-20T14:35:33;10.10;89.60
25937;DHT22;13733;51.178;4.450;2023-12-20T14:37:59;10.00;90.00
25937;DHT22;13733;51.178;4.450;2023-12-20T14:40:25;10.00;90.30
25937;DHT22;13733;51.178;4.450;2023-12-20T14:42:51;10.10;87.80
25937;DHT22;13733;51.178;4.450;2023-12-20T14:45:17;10.00;89.70
25937;DHT22;13733;51.178;4.450;2023-12-20T14:47:43;10.00;90.50
25937;DHT22;13733;51.178;4.450;2023-12-20T14:50:09;9.90;92.20
25937;DHT22;13733;51.178;4.450;2023-12-20T14:52:37;9.90;92.50
25937;DHT22;13733;51.178;4.450;2023-12-20T14:55:03;10.00;91.10
25937;DHT22;13733;51.178;4.450;2023-12-20T14:57:30;10.00;90.90
25937;DHT22;13733;51.178;4.450;2023-12-20T14:59:56;10.10;89.00
25937;DHT22;13733;51.178;4.450;2023-12-20T15:02:22;10.00;90.80
25937;DHT22;13733;51.178;4.450;2023-12-20T15:04:48;10.10;90.40
25937;DHT22;13733;51.178;4.450;2023-12-20T15:07:15;10.00;90.20
25937;DHT22;13733;51.178;4.450;2023-12-20T15:09:41;10.20;87.00
25937;DHT22;13733;51.178;4.450;2023-12-20T15:12:11;10.10;86.90
25937;DHT22;13733;51.178;4.450;2023-12-20T15:14:38;10.00;91.80
25937;DHT22;13733;51.178;4.450;2023-12-20T15:17:04;9.90;91.90
25937;DHT22;13733;51.178;4.450;2023-12-20T15:19:31;9.90;92.70
25937;DHT22;13733;51.178;4.450;2023-12-20T15:21:57;9.90;93.40
25937;DHT22;13733;51.178;4.450;2023-12-20T15:24:25;9.90;91.50
25937;DHT22;13733;51.178;4.450;2023-12-20T15:27:03;9.90;92.20
25937;DHT22;13733;51.178;4.450;2023-12-20T15:29:29;10.00;90.80
25937;DHT22;13733;51.178;4.450;2023-12-20T15:31:56;10.10;89.80
25937;DHT22;13733;51.178;4.450;2023-12-20T15:34:22;10.20;86.90
25937;DHT22;13733;51.178;4.450;2023-12-20T15:36:48;10.20;85.50
25937;DHT22;13733;51.178;4.450;2023-12-20T15:39:14;10.10;86.30
25937;DHT22;13733;51.178;4.450;2023-12-20T15:41:40;10.10;88.80
25937;DHT22;13733;51.178;4.450;2023-12-20T15:44:06;10.00;91.20